createdAt,value
2019-03-29T00:00:28.401Z,1003.73
2019-03-29T00:01:28.429Z,1003.74
2019-03-29T00:02:28.384Z,1003.71
2019-03-29T00:03:28.372Z,1003.68
2019-03-29T00:04:28.356Z,1003.65
2019-03-29T00:05:28.360Z,1003.60
2019-03-29T00:06:28.403Z,1003.71
2019-03-29T00:07:38.906Z,1003.70
2019-03-29T00:08:29.337Z,1003.73
2019-03-29T00:09:28.545Z,1003.70
2019-03-29T00:10:28.294Z,1003.66
2019-03-29T00:11:28.283Z,1003.67
2019-03-29T00:12:28.480Z,1003.67
2019-03-29T00:13:28.260Z,1003.69
2019-03-29T00:14:28.289Z,1003.70
2019-03-29T00:15:28.241Z,1003.76
2019-03-29T00:16:28.229Z,1003.69
2019-03-29T00:17:28.231Z,1003.67
2019-03-29T00:18:28.232Z,1003.60
2019-03-29T00:19:28.232Z,1003.61
2019-03-29T00:20:28.270Z,1003.61
2019-03-29T00:21:28.177Z,1003.59
2019-03-29T00:22:28.176Z,1003.57
2019-03-29T00:23:28.157Z,1003.50
2019-03-29T00:24:28.145Z,1003.46
2019-03-29T00:25:28.165Z,1003.51
2019-03-29T00:26:28.163Z,1003.50
2019-03-29T00:27:28.123Z,1003.55
2019-03-29T00:28:28.128Z,1003.50
2019-03-29T00:29:28.090Z,1003.45
2019-03-29T00:30:28.082Z,1003.41
2019-03-29T00:31:28.071Z,1003.41
2019-03-29T00:32:28.093Z,1003.39
2019-03-29T00:33:28.049Z,1003.49
2019-03-29T00:34:28.039Z,1003.48
2019-03-29T00:35:28.028Z,1003.43
2019-03-29T00:36:28.018Z,1003.44
2019-03-29T00:37:28.016Z,1003.42
2019-03-29T00:38:28.009Z,1003.45
2019-03-29T00:39:27.992Z,1003.47
2019-03-29T00:40:27.973Z,1003.39
2019-03-29T00:41:27.965Z,1003.44
2019-03-29T00:42:27.964Z,1003.33
2019-03-29T00:43:27.943Z,1003.35
2019-03-29T00:44:27.954Z,1003.35
2019-03-29T00:45:27.926Z,1003.42
2019-03-29T00:46:27.910Z,1003.31
2019-03-29T00:47:27.915Z,1003.31
2019-03-29T00:48:27.894Z,1003.32
2019-03-29T00:49:27.884Z,1003.34
2019-03-29T00:50:27.871Z,1003.28
2019-03-29T00:51:27.888Z,1003.25
2019-03-29T00:52:27.856Z,1003.29
2019-03-29T00:53:27.837Z,1003.30
2019-03-29T00:54:28.161Z,1003.32
2019-03-29T00:55:27.816Z,1003.27
2019-03-29T00:56:27.806Z,1003.26
2019-03-29T00:57:27.824Z,1003.25
2019-03-29T00:58:27.829Z,1003.32
2019-03-29T00:59:27.774Z,1003.28
2019-03-29T01:00:31.185Z,1003.25
2019-03-29T01:01:27.753Z,1003.22
2019-03-29T01:02:27.754Z,1003.20
2019-03-29T01:03:27.736Z,1003.22
2019-03-29T01:04:28.980Z,1003.30
2019-03-29T01:05:27.709Z,1003.19
2019-03-29T01:06:27.703Z,1003.17
2019-03-29T01:07:27.699Z,1003.20
2019-03-29T01:08:27.702Z,1003.26
2019-03-29T01:09:27.674Z,1003.19
2019-03-29T01:10:27.701Z,1003.23
2019-03-29T01:11:27.725Z,1003.16
2019-03-29T01:12:27.666Z,1003.15
2019-03-29T01:13:27.628Z,1003.16
2019-03-29T01:14:27.616Z,1003.19
2019-03-29T01:15:27.603Z,1003.22
2019-03-29T01:16:27.845Z,1003.22
2019-03-29T01:17:27.611Z,1003.25
2019-03-29T01:18:27.588Z,1003.27
2019-03-29T01:19:27.570Z,1003.23
2019-03-29T01:20:27.578Z,1003.30
2019-03-29T01:21:27.547Z,1003.26
2019-03-29T01:22:27.534Z,1003.21
2019-03-29T01:23:27.581Z,1003.27
2019-03-29T01:24:27.512Z,1003.21
2019-03-29T01:25:27.497Z,1003.19
2019-03-29T01:26:27.487Z,1003.16
2019-03-29T01:27:27.489Z,1003.28
2019-03-29T01:28:27.476Z,1003.21
2019-03-29T01:29:27.481Z,1003.26
2019-03-29T01:30:27.578Z,1003.20
2019-03-29T01:31:27.445Z,1003.19
2019-03-29T01:32:27.424Z,1003.18
2019-03-29T01:33:27.422Z,1003.25
2019-03-29T01:34:27.405Z,1003.17
2019-03-29T01:35:27.394Z,1003.18
2019-03-29T01:36:28.079Z,1003.19
2019-03-29T01:37:27.375Z,1003.17
2019-03-29T01:38:27.370Z,1003.21
2019-03-29T01:39:27.349Z,1003.19
2019-03-29T01:40:27.347Z,1003.13
2019-03-29T01:41:27.373Z,1003.12
2019-03-29T01:42:27.338Z,1003.18
2019-03-29T01:43:27.373Z,1003.21
2019-03-29T01:44:28.018Z,1003.22
2019-03-29T01:45:27.286Z,1003.24
2019-03-29T01:46:27.278Z,1003.21
2019-03-29T01:47:27.268Z,1003.20
2019-03-29T01:48:27.298Z,1003.20
2019-03-29T01:49:27.250Z,1003.19
2019-03-29T01:50:27.235Z,1003.19
2019-03-29T01:51:27.890Z,1003.20
2019-03-29T01:52:27.216Z,1003.20
2019-03-29T01:53:27.216Z,1003.19
2019-03-29T01:54:27.230Z,1003.25
2019-03-29T01:55:27.184Z,1003.21
2019-03-29T01:56:27.187Z,1003.23
2019-03-29T01:57:27.169Z,1003.25
2019-03-29T01:58:27.161Z,1003.20
2019-03-29T01:59:27.141Z,1003.21
2019-03-29T02:00:27.131Z,1003.20
2019-03-29T02:01:27.143Z,1003.27
2019-03-29T02:02:27.119Z,1003.27
2019-03-29T02:03:27.118Z,1003.27
2019-03-29T02:04:27.089Z,1003.25
2019-03-29T02:05:27.772Z,1003.25
2019-03-29T02:06:27.092Z,1003.22
2019-03-29T02:07:27.115Z,1003.22
2019-03-29T02:08:35.704Z,1003.31
2019-03-29T02:09:28.049Z,1003.26
2019-03-29T02:10:27.044Z,1003.26
2019-03-29T02:11:27.017Z,1003.28
2019-03-29T02:12:27.005Z,1003.29
2019-03-29T02:13:27.039Z,1003.36
2019-03-29T02:14:27.025Z,1003.24
2019-03-29T02:15:26.978Z,1003.30
2019-03-29T02:16:26.976Z,1003.31
2019-03-29T02:17:26.953Z,1003.22
2019-03-29T02:18:26.942Z,1003.20
2019-03-29T02:19:27.041Z,1003.25
2019-03-29T02:20:26.923Z,1003.26
2019-03-29T02:21:26.912Z,1003.31
2019-03-29T02:22:26.904Z,1003.23
2019-03-29T02:23:26.891Z,1003.26
2019-03-29T02:24:26.892Z,1003.21
2019-03-29T02:25:26.901Z,1003.26
2019-03-29T02:26:26.860Z,1003.25
2019-03-29T02:27:27.231Z,1003.24
2019-03-29T02:28:26.841Z,1003.24
2019-03-29T02:29:26.855Z,1003.17
2019-03-29T02:30:26.823Z,1003.24
2019-03-29T02:31:28.842Z,1003.20
2019-03-29T02:32:26.817Z,1003.25
2019-03-29T02:33:26.796Z,1003.20
2019-03-29T02:34:26.795Z,1003.22
2019-03-29T02:35:26.774Z,1003.21
2019-03-29T02:36:26.757Z,1003.23
2019-03-29T02:37:26.746Z,1003.21
2019-03-29T02:38:26.758Z,1003.20
2019-03-29T02:39:27.066Z,1003.20
2019-03-29T02:40:26.715Z,1003.23
2019-03-29T02:41:26.706Z,1003.22
2019-03-29T02:42:26.702Z,1003.18
2019-03-29T02:43:26.683Z,1003.19
2019-03-29T02:44:26.683Z,1003.22
2019-03-29T02:45:26.675Z,1003.25
2019-03-29T02:46:26.672Z,1003.28
2019-03-29T02:47:26.645Z,1003.33
2019-03-29T02:48:26.638Z,1003.35
2019-03-29T02:49:26.632Z,1003.35
2019-03-29T02:50:26.611Z,1003.37
2019-03-29T02:51:26.603Z,1003.31
2019-03-29T02:52:26.596Z,1003.31
2019-03-29T02:53:26.602Z,1003.36
2019-03-29T02:54:26.597Z,1003.26
2019-03-29T02:55:26.652Z,1003.21
2019-03-29T02:56:26.546Z,1003.27
2019-03-29T02:57:26.536Z,1003.18
2019-03-29T02:58:26.533Z,1003.27
2019-03-29T02:59:26.560Z,1003.28
2019-03-29T03:00:26.507Z,1003.20
2019-03-29T03:01:26.495Z,1003.23
2019-03-29T03:02:26.922Z,1003.25
2019-03-29T03:03:26.473Z,1003.27
2019-03-29T03:04:26.473Z,1003.27
2019-03-29T03:05:26.478Z,1003.27
2019-03-29T03:06:26.446Z,1003.26
2019-03-29T03:07:26.433Z,1003.31
2019-03-29T03:08:26.426Z,1003.34
2019-03-29T03:09:26.431Z,1003.28
2019-03-29T03:10:26.401Z,1003.34
2019-03-29T03:11:26.429Z,1003.33
2019-03-29T03:12:26.416Z,1003.38
2019-03-29T03:13:26.368Z,1003.32
2019-03-29T03:14:26.378Z,1003.32
2019-03-29T03:15:26.347Z,1003.35
2019-03-29T03:16:26.337Z,1003.35
2019-03-29T03:17:26.331Z,1003.34
2019-03-29T03:18:26.322Z,1003.39
2019-03-29T03:19:26.355Z,1003.36
2019-03-29T03:20:26.295Z,1003.29
2019-03-29T03:21:26.283Z,1003.30
2019-03-29T03:22:26.280Z,1003.25
2019-03-29T03:23:26.301Z,1003.33
2019-03-29T03:24:26.261Z,1003.26
2019-03-29T03:25:26.283Z,1003.28
2019-03-29T03:26:26.235Z,1003.30
2019-03-29T03:27:26.221Z,1003.28
2019-03-29T03:28:26.221Z,1003.27
2019-03-29T03:29:26.212Z,1003.30
2019-03-29T03:30:26.203Z,1003.36
2019-03-29T03:31:26.186Z,1003.34
2019-03-29T03:32:26.186Z,1003.31
2019-03-29T03:33:26.158Z,1003.36
2019-03-29T03:34:26.161Z,1003.38
2019-03-29T03:35:26.193Z,1003.34
2019-03-29T03:36:26.127Z,1003.37
2019-03-29T03:37:26.127Z,1003.35
2019-03-29T03:38:26.143Z,1003.34
2019-03-29T03:39:32.093Z,1003.31
2019-03-29T03:40:27.095Z,1003.36
2019-03-29T03:41:26.075Z,1003.31
2019-03-29T03:42:26.064Z,1003.42
2019-03-29T03:43:26.077Z,1003.34
2019-03-29T03:44:26.117Z,1003.34
2019-03-29T03:45:26.043Z,1003.39
2019-03-29T03:46:26.022Z,1003.26
2019-03-29T03:47:26.018Z,1003.27
2019-03-29T03:48:26.002Z,1003.31
2019-03-29T03:49:26.015Z,1003.26
2019-03-29T03:50:25.994Z,1003.28
2019-03-29T03:51:25.968Z,1003.28
2019-03-29T03:52:25.958Z,1003.31
2019-03-29T03:53:25.948Z,1003.19
2019-03-29T03:54:25.940Z,1003.23
2019-03-29T03:55:25.970Z,1003.21
2019-03-29T03:56:25.916Z,1003.16
2019-03-29T03:57:25.907Z,1003.22
2019-03-29T03:58:25.898Z,1003.21
2019-03-29T03:59:25.897Z,1003.19
2019-03-29T04:00:25.894Z,1003.21
2019-03-29T04:01:25.886Z,1003.15
2019-03-29T04:02:25.853Z,1003.25
2019-03-29T04:03:25.847Z,1003.21
2019-03-29T04:04:25.845Z,1003.22
2019-03-29T04:05:25.830Z,1003.21
2019-03-29T04:06:25.836Z,1003.21
2019-03-29T04:07:25.898Z,1003.20
2019-03-29T04:08:25.790Z,1003.19
2019-03-29T04:09:25.811Z,1003.22
2019-03-29T04:10:25.793Z,1003.23
2019-03-29T04:11:25.759Z,1003.24
2019-03-29T04:12:25.748Z,1003.18
2019-03-29T04:13:25.759Z,1003.19
2019-03-29T04:14:25.772Z,1003.17
2019-03-29T04:15:25.734Z,1003.23
2019-03-29T04:16:25.708Z,1003.19
2019-03-29T04:17:25.696Z,1003.30
2019-03-29T04:18:25.686Z,1003.18
2019-03-29T04:19:25.676Z,1003.24
2019-03-29T04:20:25.692Z,1003.23
2019-03-29T04:21:25.654Z,1003.19
2019-03-29T04:22:25.643Z,1003.23
2019-03-29T04:23:25.635Z,1003.25
2019-03-29T04:24:25.624Z,1003.19
2019-03-29T04:25:25.622Z,1003.14
2019-03-29T04:26:25.668Z,1003.17
2019-03-29T04:27:25.607Z,1003.24
2019-03-29T04:28:25.581Z,1003.14
2019-03-29T04:29:25.698Z,1003.13
2019-03-29T04:30:25.581Z,1003.15
2019-03-29T04:31:25.569Z,1003.18
2019-03-29T04:32:25.570Z,1003.07
2019-03-29T04:33:25.539Z,1003.12
2019-03-29T04:34:25.524Z,1003.13
2019-03-29T04:35:25.519Z,1003.08
2019-03-29T04:36:25.499Z,1003.05
2019-03-29T04:37:25.487Z,1003.08
2019-03-29T04:38:25.506Z,1003.04
2019-03-29T04:39:25.466Z,1003.08
2019-03-29T04:40:25.471Z,1003.11
2019-03-29T04:41:25.452Z,1003.07
2019-03-29T04:42:25.436Z,1003.09
2019-03-29T04:43:25.431Z,1003.17
2019-03-29T04:44:25.451Z,1003.12
2019-03-29T04:45:25.420Z,1003.14
2019-03-29T04:46:25.400Z,1003.14
2019-03-29T04:47:25.387Z,1003.15
2019-03-29T04:48:25.375Z,1003.12
2019-03-29T04:49:25.363Z,1003.14
2019-03-29T04:50:25.386Z,1003.17
2019-03-29T04:51:25.342Z,1003.13
2019-03-29T04:52:25.369Z,1003.14
2019-03-29T04:53:25.326Z,1003.14
2019-03-29T04:54:25.335Z,1003.10
2019-03-29T04:55:25.310Z,1003.09
2019-03-29T04:56:25.309Z,1003.14
2019-03-29T04:57:25.321Z,1003.15
2019-03-29T04:58:25.267Z,1003.14
2019-03-29T04:59:25.265Z,1003.16
2019-03-29T05:00:25.291Z,1003.05
2019-03-29T05:01:25.250Z,1003.10
2019-03-29T05:02:25.230Z,1003.09
2019-03-29T05:03:25.219Z,1003.18
2019-03-29T05:04:25.211Z,1003.06
2019-03-29T05:05:25.244Z,1003.10
2019-03-29T05:06:25.200Z,1003.15
2019-03-29T05:07:25.178Z,1003.12
2019-03-29T05:08:25.171Z,1003.22
2019-03-29T05:09:25.158Z,1003.21
2019-03-29T05:10:25.155Z,1003.27
2019-03-29T05:11:25.132Z,1003.27
2019-03-29T05:12:25.124Z,1003.30
2019-03-29T05:13:25.166Z,1003.21
2019-03-29T05:14:25.110Z,1003.22
2019-03-29T05:15:25.108Z,1003.17
2019-03-29T05:16:25.081Z,1003.20
2019-03-29T05:17:25.071Z,1003.31
2019-03-29T05:18:25.063Z,1003.27
2019-03-29T05:19:25.067Z,1003.32
2019-03-29T05:20:25.087Z,1003.27
2019-03-29T05:21:25.029Z,1003.35
2019-03-29T05:22:25.019Z,1003.33
2019-03-29T05:23:25.008Z,1003.25
2019-03-29T05:24:24.998Z,1003.27
2019-03-29T05:25:24.988Z,1003.25
2019-03-29T05:26:25.616Z,1003.31
2019-03-29T05:27:24.967Z,1003.37
2019-03-29T05:28:24.997Z,1003.30
2019-03-29T05:29:24.945Z,1003.34
2019-03-29T05:30:24.936Z,1003.29
2019-03-29T05:31:24.961Z,1003.30
2019-03-29T05:32:24.914Z,1003.29
2019-03-29T05:33:24.917Z,1003.35
2019-03-29T05:34:24.910Z,1003.32
2019-03-29T05:35:24.888Z,1003.32
2019-03-29T05:36:24.882Z,1003.32
2019-03-29T05:37:24.865Z,1003.34
2019-03-29T05:38:24.858Z,1003.31
2019-03-29T05:39:24.846Z,1003.31
2019-03-29T05:40:34.718Z,1003.34
2019-03-29T05:41:25.900Z,1003.37
2019-03-29T05:42:24.812Z,1003.35
2019-03-29T05:43:24.816Z,1003.36
2019-03-29T05:44:24.804Z,1003.36
2019-03-29T05:45:24.782Z,1003.41
2019-03-29T05:46:24.781Z,1003.41
2019-03-29T05:47:24.858Z,1003.37
2019-03-29T05:48:24.749Z,1003.35
2019-03-29T05:49:24.743Z,1003.34
2019-03-29T05:50:24.758Z,1003.36
2019-03-29T05:51:24.725Z,1003.41
2019-03-29T05:52:24.706Z,1003.38
2019-03-29T05:53:24.694Z,1003.40
2019-03-29T05:54:24.692Z,1003.46
2019-03-29T05:55:32.668Z,1003.42
2019-03-29T05:56:25.755Z,1003.51
2019-03-29T05:57:24.655Z,1003.50
2019-03-29T05:58:24.656Z,1003.59
2019-03-29T05:59:24.658Z,1003.50
2019-03-29T06:00:24.655Z,1003.53
2019-03-29T06:01:24.625Z,1003.47
2019-03-29T06:02:24.695Z,1003.51
2019-03-29T06:03:24.630Z,1003.49
2019-03-29T06:04:24.580Z,1003.45
2019-03-29T06:05:24.575Z,1003.41
2019-03-29T06:06:24.568Z,1003.47
2019-03-29T06:07:24.548Z,1003.44
2019-03-29T06:08:24.537Z,1003.55
2019-03-29T06:09:24.547Z,1003.48
2019-03-29T06:10:24.518Z,1003.50
2019-03-29T06:11:24.517Z,1003.53
2019-03-29T06:12:24.504Z,1003.48
2019-03-29T06:13:24.485Z,1003.55
2019-03-29T06:14:24.475Z,1003.45
2019-03-29T06:15:24.490Z,1003.41
2019-03-29T06:16:38.099Z,1003.46
2019-03-29T06:17:25.443Z,1003.46
2019-03-29T06:18:24.499Z,1003.40
2019-03-29T06:19:24.431Z,1003.35
2019-03-29T06:20:24.436Z,1003.34
2019-03-29T06:21:24.453Z,1003.33
2019-03-29T06:22:24.391Z,1003.42
2019-03-29T06:23:24.512Z,1003.42
2019-03-29T06:24:24.393Z,1003.44
2019-03-29T06:25:24.381Z,1003.31
2019-03-29T06:26:24.360Z,1003.37
2019-03-29T06:27:24.363Z,1003.35
2019-03-29T06:28:24.327Z,1003.39
2019-03-29T06:29:24.321Z,1003.39
2019-03-29T06:30:24.306Z,1003.37
2019-03-29T06:31:24.306Z,1003.36
2019-03-29T06:32:24.289Z,1003.41
2019-03-29T06:33:24.331Z,1003.38
2019-03-29T06:34:24.264Z,1003.41
2019-03-29T06:35:24.264Z,1003.39
2019-03-29T06:36:24.254Z,1003.43
2019-03-29T06:37:24.249Z,1003.39
2019-03-29T06:38:24.237Z,1003.39
2019-03-29T06:39:24.225Z,1003.41
2019-03-29T06:40:24.202Z,1003.40
2019-03-29T06:41:24.205Z,1003.39
2019-03-29T06:42:24.180Z,1003.37
2019-03-29T06:43:24.168Z,1003.28
2019-03-29T06:44:24.159Z,1003.30
2019-03-29T06:45:24.158Z,1003.36
2019-03-29T06:46:24.154Z,1003.36
2019-03-29T06:47:24.130Z,1003.34
2019-03-29T06:48:24.115Z,1003.41
2019-03-29T06:49:24.155Z,1003.44
2019-03-29T06:50:24.095Z,1003.44
2019-03-29T06:51:24.105Z,1003.45
2019-03-29T06:52:24.100Z,1003.48
2019-03-29T06:53:24.062Z,1003.36
2019-03-29T06:54:24.068Z,1003.40
2019-03-29T06:55:24.042Z,1003.38
2019-03-29T06:56:24.055Z,1003.43
2019-03-29T06:57:24.035Z,1003.47
2019-03-29T06:58:24.062Z,1003.43
2019-03-29T06:59:24.002Z,1003.46
2019-03-29T07:00:23.987Z,1003.47
2019-03-29T07:01:23.985Z,1003.41
2019-03-29T07:02:23.982Z,1003.45
2019-03-29T07:03:23.956Z,1003.38
2019-03-29T07:04:23.985Z,1003.36
2019-03-29T07:05:23.953Z,1003.37
2019-03-29T07:06:23.946Z,1003.43
2019-03-29T07:07:24.071Z,1003.45
2019-03-29T07:08:23.917Z,1003.43
2019-03-29T07:09:23.890Z,1003.51
2019-03-29T07:10:23.879Z,1003.42
2019-03-29T07:11:23.883Z,1003.47
2019-03-29T07:12:23.861Z,1003.47
2019-03-29T07:13:23.865Z,1003.44
2019-03-29T07:14:23.837Z,1003.47
2019-03-29T07:15:23.828Z,1003.48
2019-03-29T07:16:23.833Z,1003.45
2019-03-29T07:17:23.805Z,1003.46
2019-03-29T07:18:23.817Z,1003.46
2019-03-29T07:19:23.832Z,1003.49
2019-03-29T07:20:23.781Z,1003.44
2019-03-29T07:21:23.774Z,1003.42
2019-03-29T07:22:23.753Z,1003.50
2019-03-29T07:23:23.742Z,1003.52
2019-03-29T07:24:23.731Z,1003.44
2019-03-29T07:25:23.732Z,1003.49
2019-03-29T07:26:23.802Z,1003.40
2019-03-29T07:27:23.787Z,1003.43
2019-03-29T07:28:23.706Z,1003.41
2019-03-29T07:29:23.683Z,1003.41
2019-03-29T07:30:23.676Z,1003.46
2019-03-29T07:31:23.657Z,1003.47
2019-03-29T07:32:23.672Z,1003.39
2019-03-29T07:33:23.657Z,1003.46
2019-03-29T07:34:23.629Z,1003.48
2019-03-29T07:35:23.612Z,1003.49
2019-03-29T07:36:23.611Z,1003.52
2019-03-29T07:37:23.618Z,1003.48
2019-03-29T07:38:23.629Z,1003.54
2019-03-29T07:39:23.577Z,1003.59
2019-03-29T07:40:23.571Z,1003.54
2019-03-29T07:41:31.597Z,1003.52
2019-03-29T07:42:24.546Z,1003.45
2019-03-29T07:43:24.115Z,1003.49
2019-03-29T07:44:23.677Z,1003.45
2019-03-29T07:45:23.556Z,1003.48
2019-03-29T07:46:23.505Z,1003.44
2019-03-29T07:47:23.532Z,1003.39
2019-03-29T07:48:23.501Z,1003.42
2019-03-29T07:49:23.563Z,1003.51
2019-03-29T07:50:23.450Z,1003.43
2019-03-29T07:51:23.457Z,1003.38
2019-03-29T07:52:23.540Z,1003.42
2019-03-29T07:53:23.453Z,1003.45
2019-03-29T07:54:23.418Z,1003.52
2019-03-29T07:55:23.397Z,1003.43
2019-03-29T07:56:23.420Z,1003.49
2019-03-29T07:57:23.410Z,1003.52
2019-03-29T07:58:23.372Z,1003.48
2019-03-29T07:59:23.575Z,1003.50
2019-03-29T08:00:23.356Z,1003.47
2019-03-29T08:01:23.359Z,1003.44
2019-03-29T08:02:23.330Z,1003.43
2019-03-29T08:03:23.575Z,1003.44
2019-03-29T08:04:24.025Z,1003.48
2019-03-29T08:05:23.290Z,1003.45
2019-03-29T08:06:23.328Z,1003.44
2019-03-29T08:07:27.492Z,1003.48
2019-03-29T08:08:27.896Z,1003.52
2019-03-29T08:09:24.250Z,1003.53
2019-03-29T08:10:26.107Z,1003.51
2019-03-29T08:11:26.294Z,1003.49
2019-03-29T08:12:23.318Z,1003.41
2019-03-29T08:13:23.208Z,1003.40
2019-03-29T08:14:23.247Z,1003.35
2019-03-29T08:15:23.200Z,1003.41
2019-03-29T08:16:23.197Z,1003.33
2019-03-29T08:17:23.175Z,1003.39
2019-03-29T08:18:23.152Z,1003.34
2019-03-29T08:19:23.143Z,1003.39
2019-03-29T08:20:40.319Z,1003.35
2019-03-29T08:21:24.118Z,1003.38
2019-03-29T08:22:23.165Z,1003.38
2019-03-29T08:23:23.096Z,1003.36
2019-03-29T08:24:23.132Z,1003.36
2019-03-29T08:25:23.078Z,1003.35
2019-03-29T08:26:23.066Z,1003.41
2019-03-29T08:27:23.061Z,1003.31
2019-03-29T08:28:23.056Z,1003.36
2019-03-29T08:29:23.044Z,1003.32
2019-03-29T08:30:23.061Z,1003.32
2019-03-29T08:31:23.039Z,1003.37
2019-03-29T08:32:23.067Z,1003.35
2019-03-29T08:33:23.082Z,1003.33
2019-03-29T08:34:23.035Z,1003.37
2019-03-29T08:35:22.967Z,1003.31
2019-03-29T08:36:22.987Z,1003.33
2019-03-29T08:37:22.979Z,1003.28
2019-03-29T08:38:22.934Z,1003.32
2019-03-29T08:39:28.056Z,1003.29
2019-03-29T08:40:23.927Z,1003.33
2019-03-29T08:41:22.906Z,1003.29
2019-03-29T08:42:22.932Z,1003.30
2019-03-29T08:43:22.902Z,1003.30
2019-03-29T08:44:22.902Z,1003.30
2019-03-29T08:45:22.881Z,1003.26
2019-03-29T08:46:22.872Z,1003.20
2019-03-29T08:47:22.856Z,1003.26
2019-03-29T08:48:22.827Z,1003.25
2019-03-29T08:49:22.847Z,1003.25
2019-03-29T08:50:22.808Z,1003.25
2019-03-29T08:51:22.792Z,1003.27
2019-03-29T08:52:22.807Z,1003.25
2019-03-29T08:53:22.793Z,1003.24
2019-03-29T08:54:22.809Z,1003.25
2019-03-29T08:55:22.758Z,1003.23
2019-03-29T08:56:22.766Z,1003.28
2019-03-29T08:57:23.127Z,1003.22
2019-03-29T08:58:22.722Z,1003.28
2019-03-29T08:59:22.711Z,1003.23
2019-03-29T09:00:22.695Z,1003.24
2019-03-29T09:01:22.684Z,1003.19
2019-03-29T09:02:25.054Z,1003.23
2019-03-29T09:03:22.678Z,1003.19
2019-03-29T09:04:22.655Z,1003.14
2019-03-29T09:05:22.642Z,1003.20
2019-03-29T09:06:22.639Z,1003.21
2019-03-29T09:07:22.639Z,1003.23
2019-03-29T09:08:22.619Z,1003.16
2019-03-29T09:09:22.624Z,1003.15
2019-03-29T09:10:22.596Z,1003.12
2019-03-29T09:11:22.599Z,1003.17
2019-03-29T09:12:22.634Z,1003.20
2019-03-29T09:13:22.561Z,1003.18
2019-03-29T09:14:22.551Z,1003.22
2019-03-29T09:15:22.561Z,1003.15
2019-03-29T09:16:22.549Z,1003.17
2019-03-29T09:17:22.535Z,1003.15
2019-03-29T09:18:25.787Z,1003.14
2019-03-29T09:19:22.519Z,1003.19
2019-03-29T09:20:22.490Z,1003.12
2019-03-29T09:21:22.471Z,1003.13
2019-03-29T09:22:22.477Z,1003.13
2019-03-29T09:23:22.447Z,1003.11
2019-03-29T09:24:22.682Z,1003.05
2019-03-29T09:25:22.431Z,1003.11
2019-03-29T09:26:22.421Z,1003.05
2019-03-29T09:27:22.420Z,1003.05
2019-03-29T09:28:22.405Z,1003.11
2019-03-29T09:29:22.395Z,1002.99
2019-03-29T09:30:22.460Z,1002.98
2019-03-29T09:31:22.364Z,1003.00
2019-03-29T09:32:22.408Z,1003.01
2019-03-29T09:33:22.348Z,1002.98
2019-03-29T09:34:22.345Z,1003.02
2019-03-29T09:35:22.331Z,1002.91
2019-03-29T09:36:22.311Z,1002.90
2019-03-29T09:37:22.321Z,1002.88
2019-03-29T09:38:22.298Z,1002.90
2019-03-29T09:39:22.277Z,1002.90
2019-03-29T09:40:22.268Z,1002.85
2019-03-29T09:41:22.271Z,1002.83
2019-03-29T09:42:28.792Z,1002.82
2019-03-29T09:43:26.376Z,1002.81
2019-03-29T09:44:22.275Z,1002.83
2019-03-29T09:45:22.260Z,1002.86
2019-03-29T09:46:22.202Z,1002.79
2019-03-29T09:47:22.224Z,1002.83
2019-03-29T09:48:22.201Z,1002.80
2019-03-29T09:49:22.178Z,1002.76
2019-03-29T09:50:23.177Z,1002.80
2019-03-29T09:51:22.174Z,1002.77
2019-03-29T09:52:22.154Z,1002.72
2019-03-29T09:53:22.143Z,1002.74
2019-03-29T09:54:22.125Z,1002.68
2019-03-29T09:55:22.167Z,1002.70
2019-03-29T09:56:22.113Z,1002.65
2019-03-29T09:57:36.035Z,1002.65
2019-03-29T09:58:23.087Z,1002.67
2019-03-29T09:59:23.235Z,1002.66
2019-03-29T10:00:23.437Z,1002.66
2019-03-29T10:01:22.134Z,1002.64
2019-03-29T10:02:22.036Z,1002.67
2019-03-29T10:03:22.033Z,1002.62
2019-03-29T10:04:22.012Z,1002.61
2019-03-29T10:05:22.115Z,1002.59
2019-03-29T10:06:22.002Z,1002.57
2019-03-29T10:07:22.010Z,1002.58
2019-03-29T10:08:22.018Z,1002.57
2019-03-29T10:09:21.962Z,1002.61
2019-03-29T10:10:21.958Z,1002.53
2019-03-29T10:11:22.314Z,1002.56
2019-03-29T10:12:21.985Z,1002.57
2019-03-29T10:13:21.987Z,1002.55
2019-03-29T10:14:21.908Z,1002.55
2019-03-29T10:15:21.897Z,1002.53
2019-03-29T10:16:21.894Z,1002.50
2019-03-29T10:17:21.890Z,1002.61
2019-03-29T10:18:21.873Z,1002.53
2019-03-29T10:19:21.862Z,1002.51
2019-03-29T10:20:21.856Z,1002.47
2019-03-29T10:21:21.839Z,1002.45
2019-03-29T10:22:21.824Z,1002.44
2019-03-29T10:23:21.848Z,1002.45
2019-03-29T10:24:21.829Z,1002.45
2019-03-29T10:25:21.906Z,1002.43
2019-03-29T10:26:21.783Z,1002.44
2019-03-29T10:27:21.787Z,1002.42
2019-03-29T10:28:21.809Z,1002.35
2019-03-29T10:29:21.761Z,1002.34
2019-03-29T10:30:21.743Z,1002.34
2019-03-29T10:31:32.114Z,1002.35
2019-03-29T10:32:22.745Z,1002.39
2019-03-29T10:33:21.721Z,1002.37
2019-03-29T10:34:21.749Z,1002.36
2019-03-29T10:35:21.692Z,1002.39
2019-03-29T10:36:21.682Z,1002.36
2019-03-29T10:37:21.671Z,1002.31
2019-03-29T10:38:21.673Z,1002.34
2019-03-29T10:39:21.646Z,1002.26
2019-03-29T10:40:21.960Z,1002.24
2019-03-29T10:41:22.698Z,1002.30
2019-03-29T10:42:21.632Z,1002.22
2019-03-29T10:43:21.633Z,1002.24
2019-03-29T10:44:21.599Z,1002.23
2019-03-29T10:45:21.583Z,1002.21
2019-03-29T10:46:21.573Z,1002.23
2019-03-29T10:47:21.565Z,1002.24
2019-03-29T10:48:21.591Z,1002.20
2019-03-29T10:49:21.589Z,1002.19
2019-03-29T10:50:21.527Z,1002.19
2019-03-29T10:51:21.534Z,1002.19
2019-03-29T10:52:21.558Z,1002.18
2019-03-29T10:53:21.513Z,1002.16
2019-03-29T10:54:21.518Z,1002.17
2019-03-29T10:55:21.487Z,1002.13
2019-03-29T10:56:33.265Z,1002.10
2019-03-29T10:57:22.465Z,1002.06
2019-03-29T10:58:21.634Z,1002.12
2019-03-29T10:59:27.617Z,1002.04
2019-03-29T11:00:22.450Z,1002.08
2019-03-29T11:01:24.625Z,1002.06
2019-03-29T11:02:21.415Z,1002.11
2019-03-29T11:03:21.402Z,1002.03
2019-03-29T11:04:21.492Z,1002.05
2019-03-29T11:05:21.388Z,1002.06
2019-03-29T11:06:21.399Z,1002.04
2019-03-29T11:07:21.349Z,1002.01
2019-03-29T11:08:21.349Z,1001.96
2019-03-29T11:09:21.354Z,1002.00
2019-03-29T11:10:21.321Z,1001.96
2019-03-29T11:11:21.316Z,1001.93
2019-03-29T11:12:21.302Z,1001.99
2019-03-29T11:13:21.289Z,1001.98
2019-03-29T11:14:21.290Z,1002.02
2019-03-29T11:15:21.284Z,1001.94
2019-03-29T11:16:21.303Z,1001.96
2019-03-29T11:17:21.256Z,1001.99
2019-03-29T11:18:21.237Z,1001.92
2019-03-29T11:19:21.247Z,1001.90
2019-03-29T11:20:21.223Z,1001.86
2019-03-29T11:21:21.210Z,1001.91
2019-03-29T11:22:21.202Z,1001.84
2019-03-29T11:23:21.187Z,1001.93
2019-03-29T11:24:21.193Z,1001.90
2019-03-29T11:25:21.164Z,1001.91
2019-03-29T11:26:21.153Z,1001.90
2019-03-29T11:27:22.647Z,1001.92
2019-03-29T11:28:21.135Z,1001.90
2019-03-29T11:29:21.136Z,1001.95
2019-03-29T11:30:21.133Z,1001.89
2019-03-29T11:31:21.113Z,1001.89
2019-03-29T11:32:21.100Z,1001.85
2019-03-29T11:33:21.096Z,1001.89
2019-03-29T11:34:21.197Z,1001.85
2019-03-29T11:35:21.071Z,1001.89
2019-03-29T11:36:21.057Z,1001.83
2019-03-29T11:37:21.058Z,1001.86
2019-03-29T11:38:21.073Z,1001.83
2019-03-29T11:39:21.033Z,1001.83
2019-03-29T11:40:21.029Z,1001.84
2019-03-29T11:41:21.018Z,1001.81
2019-03-29T11:42:21.001Z,1001.86
2019-03-29T11:43:27.226Z,1001.86
2019-03-29T11:44:21.995Z,1001.88
2019-03-29T11:45:20.983Z,1001.94
2019-03-29T11:46:20.972Z,1001.89
2019-03-29T11:47:20.957Z,1001.86
2019-03-29T11:48:20.932Z,1001.82
2019-03-29T11:49:20.949Z,1001.83
2019-03-29T11:50:20.923Z,1001.84
2019-03-29T11:51:20.902Z,1001.82
2019-03-29T11:52:20.899Z,1001.70
2019-03-29T11:53:20.920Z,1001.83
2019-03-29T11:54:20.894Z,1001.81
2019-03-29T11:55:20.907Z,1001.77
2019-03-29T11:56:20.889Z,1001.72
2019-03-29T11:57:20.847Z,1001.72
2019-03-29T11:58:20.852Z,1001.72
2019-03-29T11:59:20.856Z,1001.62
2019-03-29T12:00:20.955Z,1001.64
2019-03-29T12:01:20.803Z,1001.65
2019-03-29T12:02:31.242Z,1001.69
2019-03-29T12:03:21.792Z,1001.70
2019-03-29T12:04:20.788Z,1001.59
2019-03-29T12:05:20.771Z,1001.56